sensor_id;sensor_type;location;lat;lon;timestamp;temperature;humidity
79439;DHT22;68889;48.232;10.110;2024-02-23T00:00:43;7.70;96.30
79439;DHT22;68889;48.232;10.110;2024-02-23T00:03:09;7.70;95.60
79439;DHT22;68889;48.232;10.110;2024-02-23T00:05:36;7.70;95.20
79439;DHT22;68889;48.232;10.110;2024-02-23T00:08:03;7.60;94.20
79439;DHT22;68889;48.232;10.110;2024-02-23T00:10:29;7.60;93.80
79439;DHT22;68889;48.232;10.110;2024-02-23T00:12:55;7.70;91.70
79439;DHT22;68889;48.232;10.110;2024-02-23T00:15:21;7.60;91.70
79439;DHT22;68889;48.232;10.110;2024-02-23T00:17:47;7.60;91.90
79439;DHT22;68889;48.232;10.110;2024-02-23T00:20:12;7.50;92.00
79439;DHT22;68889;48.232;10.110;2024-02-23T00:22:40;7.50;92.10
79439;DHT22;68889;48.232;10.110;2024-02-23T00:25:07;7.40;92.10
79439;DHT22;68889;48.232;10.110;2024-02-23T00:27:33;7.40;91.00
79439;DHT22;68889;48.232;10.110;2024-02-23T00:29:59;7.40;91.50
79439;DHT22;68889;48.232;10.110;2024-02-23T00:32:25;7.30;90.90
79439;DHT22;68889;48.232;10.110;2024-02-23T00:34:51;7.30;90.80
79439;DHT22;68889;48.232;10.110;2024-02-23T00:37:16;7.20;90.90
79439;DHT22;68889;48.232;10.110;2024-02-23T00:39:42;7.20;91.50
79439;DHT22;68889;48.232;10.110;2024-02-23T00:42:07;7.10;91.00
79439;DHT22;68889;48.232;10.110;2024-02-23T00:44:33;7.10;91.20
79439;DHT22;68889;48.232;10.110;2024-02-23T00:46:59;7.20;90.40
79439;DHT22;68889;48.232;10.110;2024-02-23T00:49:27;7.10;91.00
79439;DHT22;68889;48.232;10.110;2024-02-23T00:51:54;7.00;91.30
79439;DHT22;68889;48.232;10.110;2024-02-23T00:54:21;7.00;91.40
79439;DHT22;68889;48.232;10.110;2024-02-23T00:56:46;6.90;91.80
79439;DHT22;68889;48.232;10.110;2024-02-23T00:59:12;7.00;91.20
79439;DHT22;68889;48.232;10.110;2024-02-23T01:04:15;7.00;91.30
79439;DHT22;68889;48.232;10.110;2024-02-23T01:06:40;7.00;91.40
79439;DHT22;68889;48.232;10.110;2024-02-23T01:09:06;7.00;91.60
79439;DHT22;68889;48.232;10.110;2024-02-23T01:11:50;7.00;91.20
79439;DHT22;68889;48.232;10.110;2024-02-23T01:14:23;7.00;91.10
79439;DHT22;68889;48.232;10.110;2024-02-23T01:16:54;7.10;91.10
79439;DHT22;68889;48.232;10.110;2024-02-23T01:19:28;7.10;91.50
79439;DHT22;68889;48.232;10.110;2024-02-23T01:22:16;7.10;91.70
79439;DHT22;68889;48.232;10.110;2024-02-23T01:24:42;7.10;91.90
79439;DHT22;68889;48.232;10.110;2024-02-23T01:27:21;7.10;92.00
79439;DHT22;68889;48.232;10.110;2024-02-23T01:29:48;7.00;92.60
79439;DHT22;68889;48.232;10.110;2024-02-23T01:32:31;7.00;92.30
79439;DHT22;68889;48.232;10.110;2024-02-23T01:35:06;7.10;93.00
79439;DHT22;68889;48.232;10.110;2024-02-23T01:37:42;7.00;92.70
79439;DHT22;68889;48.232;10.110;2024-02-23T01:43:16;6.90;93.60
79439;DHT22;68889;48.232;10.110;2024-02-23T01:45:48;6.90;93.70
79439;DHT22;68889;48.232;10.110;2024-02-23T01:48:20;6.90;93.90
79439;DHT22;68889;48.232;10.110;2024-02-23T01:50:55;6.90;93.50
79439;DHT22;68889;48.232;10.110;2024-02-23T01:53:43;6.70;94.40
79439;DHT22;68889;48.232;10.110;2024-02-23T01:56:32;6.40;95.80
79439;DHT22;68889;48.232;10.110;2024-02-23T01:59:10;5.90;97.10
79439;DHT22;68889;48.232;10.110;2024-02-23T02:01:37;5.60;97.70
79439;DHT22;68889;48.232;10.110;2024-02-23T02:04:15;5.40;98.50
79439;DHT22;68889;48.232;10.110;2024-02-23T02:06:41;5.20;99.40
79439;DHT22;68889;48.232;10.110;2024-02-23T02:09:28;5.10;99.30
79439;DHT22;68889;48.232;10.110;2024-02-23T02:12:25;5.10;99.90
79439;DHT22;68889;48.232;10.110;2024-02-23T02:14:51;5.00;99.90
79439;DHT22;68889;48.232;10.110;2024-02-23T02:17:29;5.00;99.90
79439;DHT22;68889;48.232;10.110;2024-02-23T02:19:59;4.90;99.90
79439;DHT22;68889;48.232;10.110;2024-02-23T02:22:43;4.90;99.90
79439;DHT22;68889;48.232;10.110;2024-02-23T02:25:09;4.90;99.90
79439;DHT22;68889;48.232;10.110;2024-02-23T02:27:35;4.80;99.90
79439;DHT22;68889;48.232;10.110;2024-02-23T02:30:06;4.80;99.90
79439;DHT22;68889;48.232;10.110;2024-02-23T02:32:41;4.80;99.90
79439;DHT22;68889;48.232;10.110;2024-02-23T02:35:33;4.80;99.90
79439;DHT22;68889;48.232;10.110;2024-02-23T02:38:00;4.80;99.90
79439;DHT22;68889;48.232;10.110;2024-02-23T02:40:26;4.80;99.90
79439;DHT22;68889;48.232;10.110;2024-02-23T02:43:00;4.80;99.90
79439;DHT22;68889;48.232;10.110;2024-02-23T02:45:42;4.80;99.90
79439;DHT22;68889;48.232;10.110;2024-02-23T02:50:59;4.80;99.90
79439;DHT22;68889;48.232;10.110;2024-02-23T02:53:28;4.80;99.90
79439;DHT22;68889;48.232;10.110;2024-02-23T02:55:54;4.90;99.90
79439;DHT22;68889;48.232;10.110;2024-02-23T02:58:24;4.90;99.90
79439;DHT22;68889;48.232;10.110;2024-02-23T03:00:52;4.90;99.90
79439;DHT22;68889;48.232;10.110;2024-02-23T03:03:29;4.90;99.90
79439;DHT22;68889;48.232;10.110;2024-02-23T03:06:05;4.90;99.90
79439;DHT22;68889;48.232;10.110;2024-02-23T03:08:31;4.90;99.90
79439;DHT22;68889;48.232;10.110;2024-02-23T03:11:11;4.90;99.90
79439;DHT22;68889;48.232;10.110;2024-02-23T03:13:54;4.90;99.90
79439;DHT22;68889;48.232;10.110;2024-02-23T03:19:22;5.00;99.90
79439;DHT22;68889;48.232;10.110;2024-02-23T03:21:59;5.00;99.30
79439;DHT22;68889;48.232;10.110;2024-02-23T03:24:34;5.00;98.50
79439;DHT22;68889;48.232;10.110;2024-02-23T03:27:14;5.10;97.40
79439;DHT22;68889;48.232;10.110;2024-02-23T03:29:45;5.10;96.80
79439;DHT22;68889;48.232;10.110;2024-02-23T03:32:15;5.20;96.60
79439;DHT22;68889;48.232;10.110;2024-02-23T03:35:18;5.20;96.60
79439;DHT22;68889;48.232;10.110;2024-02-23T03:37:48;5.10;96.20
79439;DHT22;68889;48.232;10.110;2024-02-23T03:40:15;5.10;96.00
79439;DHT22;68889;48.232;10.110;2024-02-23T03:42:47;5.10;96.10
79439;DHT22;68889;48.232;10.110;2024-02-23T03:45:36;5.10;95.80
79439;DHT22;68889;48.232;10.110;2024-02-23T03:48:13;5.10;96.30
79439;DHT22;68889;48.232;10.110;2024-02-23T03:50:43;5.10;96.20
79439;DHT22;68889;48.232;10.110;2024-02-23T03:53:32;5.10;95.70
79439;DHT22;68889;48.232;10.110;2024-02-23T04:02:36;5.10;95.10
79439;DHT22;68889;48.232;10.110;2024-02-23T04:08:11;5.10;94.70
79439;DHT22;68889;48.232;10.110;2024-02-23T04:10:46;5.10;95.10
79439;DHT22;68889;48.232;10.110;2024-02-23T04:13:19;5.10;94.50
79439;DHT22;68889;48.232;10.110;2024-02-23T04:15:47;5.00;94.10
79439;DHT22;68889;48.232;10.110;2024-02-23T04:18:24;5.00;94.10
79439;DHT22;68889;48.232;10.110;2024-02-23T04:21:12;5.00;93.90
79439;DHT22;68889;48.232;10.110;2024-02-23T04:23:44;5.00;93.60
79439;DHT22;68889;48.232;10.110;2024-02-23T04:26:41;5.00;94.10
79439;DHT22;68889;48.232;10.110;2024-02-23T04:29:40;5.00;93.70
79439;DHT22;68889;48.232;10.110;2024-02-23T04:32:06;5.00;93.90
79439;DHT22;68889;48.232;10.110;2024-02-23T04:34:41;5.00;94.00
79439;DHT22;68889;48.232;10.110;2024-02-23T04:37:10;5.00;94.80
79439;DHT22;68889;48.232;10.110;2024-02-23T04:39:46;5.00;94.60
79439;DHT22;68889;48.232;10.110;2024-02-23T04:42:18;5.00;95.00
79439;DHT22;68889;48.232;10.110;2024-02-23T04:44:52;4.90;95.10
79439;DHT22;68889;48.232;10.110;2024-02-23T04:47:31;4.90;95.70
79439;DHT22;68889;48.232;10.110;2024-02-23T04:50:07;4.90;94.70
79439;DHT22;68889;48.232;10.110;2024-02-23T04:52:35;4.90;95.00
79439;DHT22;68889;48.232;10.110;2024-02-23T04:55:01;4.90;95.00
79439;DHT22;68889;48.232;10.110;2024-02-23T04:57:27;4.90;95.00
79439;DHT22;68889;48.232;10.110;2024-02-23T04:59:53;4.90;95.20
79439;DHT22;68889;48.232;10.110;2024-02-23T05:02:20;4.90;95.60
79439;DHT22;68889;48.232;10.110;2024-02-23T05:04:59;4.90;95.60
79439;DHT22;68889;48.232;10.110;2024-02-23T05:07:31;4.90;96.20
79439;DHT22;68889;48.232;10.110;2024-02-23T05:10:18;4.90;96.70
79439;DHT22;68889;48.232;10.110;2024-02-23T05:12:59;4.90;97.00
79439;DHT22;68889;48.232;10.110;2024-02-23T05:15:47;4.80;97.10
79439;DHT22;68889;48.232;10.110;2024-02-23T05:18:13;4.80;97.00
79439;DHT22;68889;48.232;10.110;2024-02-23T05:20:52;4.80;97.10
79439;DHT22;68889;48.232;10.110;2024-02-23T05:23:23;4.90;97.30
79439;DHT22;68889;48.232;10.110;2024-02-23T05:26:11;4.80;97.70
79439;DHT22;68889;48.232;10.110;2024-02-23T05:28:41;4.80;97.80
79439;DHT22;68889;48.232;10.110;2024-02-23T05:31:43;4.80;98.00
79439;DHT22;68889;48.232;10.110;2024-02-23T05:34:12;4.80;98.30
79439;DHT22;68889;48.232;10.110;2024-02-23T05:37:02;4.80;98.40
79439;DHT22;68889;48.232;10.110;2024-02-23T05:39:44;4.70;98.70
79439;DHT22;68889;48.232;10.110;2024-02-23T05:42:11;4.70;99.10
79439;DHT22;68889;48.232;10.110;2024-02-23T05:44:47;4.70;99.40
79439;DHT22;68889;48.232;10.110;2024-02-23T05:47:16;4.70;99.60
79439;DHT22;68889;48.232;10.110;2024-02-23T05:49:43;4.70;99.70
79439;DHT22;68889;48.232;10.110;2024-02-23T05:52:09;4.70;99.30
79439;DHT22;68889;48.232;10.110;2024-02-23T05:54:49;4.70;99.30
79439;DHT22;68889;48.232;10.110;2024-02-23T06:00:37;4.70;98.70
79439;DHT22;68889;48.232;10.110;2024-02-23T06:03:13;4.70;99.00
79439;DHT22;68889;48.232;10.110;2024-02-23T06:05:48;4.70;98.50
79439;DHT22;68889;48.232;10.110;2024-02-23T06:08:29;4.70;98.70
79439;DHT22;68889;48.232;10.110;2024-02-23T06:10:56;4.70;98.10
79439;DHT22;68889;48.232;10.110;2024-02-23T06:13:29;4.70;98.20
79439;DHT22;68889;48.232;10.110;2024-02-23T06:16:04;4.70;97.90
79439;DHT22;68889;48.232;10.110;2024-02-23T06:21:59;4.70;97.90
79439;DHT22;68889;48.232;10.110;2024-02-23T06:24:38;4.60;98.20
79439;DHT22;68889;48.232;10.110;2024-02-23T06:27:10;4.60;98.30
79439;DHT22;68889;48.232;10.110;2024-02-23T06:32:41;4.60;98.10
79439;DHT22;68889;48.232;10.110;2024-02-23T06:35:16;4.60;98.30
79439;DHT22;68889;48.232;10.110;2024-02-23T06:38:17;4.60;97.60
79439;DHT22;68889;48.232;10.110;2024-02-23T06:40:51;4.60;97.60
79439;DHT22;68889;48.232;10.110;2024-02-23T06:43:28;4.60;98.00
79439;DHT22;68889;48.232;10.110;2024-02-23T06:45:56;4.60;97.70
79439;DHT22;68889;48.232;10.110;2024-02-23T06:48:27;4.60;97.60
79439;DHT22;68889;48.232;10.110;2024-02-23T06:51:02;4.60;97.60
79439;DHT22;68889;48.232;10.110;2024-02-23T06:53:31;4.70;97.60
79439;DHT22;68889;48.232;10.110;2024-02-23T06:59:37;4.80;97.90
79439;DHT22;68889;48.232;10.110;2024-02-23T07:02:30;4.70;98.50
79439;DHT22;68889;48.232;10.110;2024-02-23T07:05:06;4.70;98.30
79439;DHT22;68889;48.232;10.110;2024-02-23T07:07:34;4.70;98.20
79439;DHT22;68889;48.232;10.110;2024-02-23T07:10:02;4.80;98.10
79439;DHT22;68889;48.232;10.110;2024-02-23T07:12:28;4.70;98.30
79439;DHT22;68889;48.232;10.110;2024-02-23T07:14:55;4.70;98.20
79439;DHT22;68889;48.232;10.110;2024-02-23T07:17:57;4.70;98.20
79439;DHT22;68889;48.232;10.110;2024-02-23T07:20:36;4.70;98.20
79439;DHT22;68889;48.232;10.110;2024-02-23T07:23:09;4.80;97.90
79439;DHT22;68889;48.232;10.110;2024-02-23T07:25:50;4.90;97.60
79439;DHT22;68889;48.232;10.110;2024-02-23T07:28:27;4.90;97.40
79439;DHT22;68889;48.232;10.110;2024-02-23T07:31:10;5.00;96.70
79439;DHT22;68889;48.232;10.110;2024-02-23T07:33:41;5.00;97.00
79439;DHT22;68889;48.232;10.110;2024-02-23T07:36:17;5.10;96.70
79439;DHT22;68889;48.232;10.110;2024-02-23T07:38:50;5.10;96.80
79439;DHT22;68889;48.232;10.110;2024-02-23T07:44:28;5.20;96.80
79439;DHT22;68889;48.232;10.110;2024-02-23T07:46:54;5.30;96.40
79439;DHT22;68889;48.232;10.110;2024-02-23T07:49:32;5.30;96.70
79439;DHT22;68889;48.232;10.110;2024-02-23T07:51:57;5.40;96.40
79439;DHT22;68889;48.232;10.110;2024-02-23T07:54:53;5.50;95.60
79439;DHT22;68889;48.232;10.110;2024-02-23T07:57:23;5.60;95.30
79439;DHT22;68889;48.232;10.110;2024-02-23T07:59:52;5.50;95.20
79439;DHT22;68889;48.232;10.110;2024-02-23T08:02:18;5.50;95.30
79439;DHT22;68889;48.232;10.110;2024-02-23T08:04:51;5.50;94.80
79439;DHT22;68889;48.232;10.110;2024-02-23T08:07:44;5.50;94.70
79439;DHT22;68889;48.232;10.110;2024-02-23T08:10:20;5.40;94.80
79439;DHT22;68889;48.232;10.110;2024-02-23T08:13:04;5.30;94.50
79439;DHT22;68889;48.232;10.110;2024-02-23T08:15:51;5.30;94.70
79439;DHT22;68889;48.232;10.110;2024-02-23T08:18:20;5.30;94.70
79439;DHT22;68889;48.232;10.110;2024-02-23T08:21:02;5.30;94.40
79439;DHT22;68889;48.232;10.110;2024-02-23T08:23:50;5.30;94.80
79439;DHT22;68889;48.232;10.110;2024-02-23T08:26:28;5.30;94.70
79439;DHT22;68889;48.232;10.110;2024-02-23T08:28:56;5.30;94.40
79439;DHT22;68889;48.232;10.110;2024-02-23T08:31:24;5.30;94.50
79439;DHT22;68889;48.232;10.110;2024-02-23T08:34:04;5.30;94.40
79439;DHT22;68889;48.232;10.110;2024-02-23T08:36:49;5.40;94.80
79439;DHT22;68889;48.232;10.110;2024-02-23T08:42:24;5.40;92.70
79439;DHT22;68889;48.232;10.110;2024-02-23T08:50:57;5.50;90.90
79439;DHT22;68889;48.232;10.110;2024-02-23T08:53:25;5.60;91.30
79439;DHT22;68889;48.232;10.110;2024-02-23T08:55:59;5.60;91.80
79439;DHT22;68889;48.232;10.110;2024-02-23T08:58:34;5.70;90.80
79439;DHT22;68889;48.232;10.110;2024-02-23T09:01:14;5.80;89.90
79439;DHT22;68889;48.232;10.110;2024-02-23T09:03:48;5.80;89.20
79439;DHT22;68889;48.232;10.110;2024-02-23T09:06:14;5.80;88.70
79439;DHT22;68889;48.232;10.110;2024-02-23T09:08:41;5.80;88.70
79439;DHT22;68889;48.232;10.110;2024-02-23T09:11:37;5.90;89.00
79439;DHT22;68889;48.232;10.110;2024-02-23T09:14:05;5.90;87.40
79439;DHT22;68889;48.232;10.110;2024-02-23T09:16:31;5.80;87.00
79439;DHT22;68889;48.232;10.110;2024-02-23T09:19:02;5.80;86.80
79439;DHT22;68889;48.232;10.110;2024-02-23T09:21:29;5.80;87.40
79439;DHT22;68889;48.232;10.110;2024-02-23T09:24:05;5.70;86.90
79439;DHT22;68889;48.232;10.110;2024-02-23T09:26:30;5.70;87.20
79439;DHT22;68889;48.232;10.110;2024-02-23T09:29:03;5.70;86.60
79439;DHT22;68889;48.232;10.110;2024-02-23T09:31:29;5.70;85.30
79439;DHT22;68889;48.232;10.110;2024-02-23T09:34:10;5.80;85.80
79439;DHT22;68889;48.232;10.110;2024-02-23T09:36:36;5.80;84.80
79439;DHT22;68889;48.232;10.110;2024-02-23T09:39:05;5.80;85.80
79439;DHT22;68889;48.232;10.110;2024-02-23T09:45:19;5.70;85.10
79439;DHT22;68889;48.232;10.110;2024-02-23T09:48:15;5.80;85.80
79439;DHT22;68889;48.232;10.110;2024-02-23T09:53:28;5.80;85.10
79439;DHT22;68889;48.232;10.110;2024-02-23T09:55:58;5.80;86.50
79439;DHT22;68889;48.232;10.110;2024-02-23T09:59:02;5.80;86.20
79439;DHT22;68889;48.232;10.110;2024-02-23T10:01:30;5.90;87.00
79439;DHT22;68889;48.232;10.110;2024-02-23T10:04:10;5.90;85.70
79439;DHT22;68889;48.232;10.110;2024-02-23T10:06:35;5.80;85.90
79439;DHT22;68889;48.232;10.110;2024-02-23T10:09:01;5.80;86.60
79439;DHT22;68889;48.232;10.110;2024-02-23T10:11:29;5.80;86.20
79439;DHT22;68889;48.232;10.110;2024-02-23T10:14:12;5.90;86.70
79439;DHT22;68889;48.232;10.110;2024-02-23T10:20:05;6.00;87.60
79439;DHT22;68889;48.232;10.110;2024-02-23T10:22:31;6.00;87.00
79439;DHT22;68889;48.232;10.110;2024-02-23T10:24:59;6.00;86.60
79439;DHT22;68889;48.232;10.110;2024-02-23T10:27:40;6.00;87.10
79439;DHT22;68889;48.232;10.110;2024-02-23T10:30:08;6.00;87.10
79439;DHT22;68889;48.232;10.110;2024-02-23T10:32:59;6.10;87.40
79439;DHT22;68889;48.232;10.110;2024-02-23T10:35:44;6.20;86.50
79439;DHT22;68889;48.232;10.110;2024-02-23T10:38:32;6.30;87.10
79439;DHT22;68889;48.232;10.110;2024-02-23T10:41:02;6.20;87.00
79439;DHT22;68889;48.232;10.110;2024-02-23T10:43:47;6.30;87.30
79439;DHT22;68889;48.232;10.110;2024-02-23T10:46:13;6.30;87.30
79439;DHT22;68889;48.232;10.110;2024-02-23T10:48:49;6.40;88.00
79439;DHT22;68889;48.232;10.110;2024-02-23T10:51:28;6.50;87.00
79439;DHT22;68889;48.232;10.110;2024-02-23T10:54:00;6.50;86.20
79439;DHT22;68889;48.232;10.110;2024-02-23T10:56:27;6.50;87.20
79439;DHT22;68889;48.232;10.110;2024-02-23T10:59:08;6.60;87.20
79439;DHT22;68889;48.232;10.110;2024-02-23T11:01:37;6.70;86.00
79439;DHT22;68889;48.232;10.110;2024-02-23T11:04:27;6.60;86.10
79439;DHT22;68889;48.232;10.110;2024-02-23T11:06:55;6.60;85.90
79439;DHT22;68889;48.232;10.110;2024-02-23T11:09:24;6.60;86.60
79439;DHT22;68889;48.232;10.110;2024-02-23T11:12:05;6.60;85.70
79439;DHT22;68889;48.232;10.110;2024-02-23T11:14:32;6.60;86.10
79439;DHT22;68889;48.232;10.110;2024-02-23T11:17:32;6.70;85.40
79439;DHT22;68889;48.232;10.110;2024-02-23T11:20:15;6.70;84.80
79439;DHT22;68889;48.232;10.110;2024-02-23T11:22:52;6.60;85.70
79439;DHT22;68889;48.232;10.110;2024-02-23T11:25:32;6.60;86.50
79439;DHT22;68889;48.232;10.110;2024-02-23T11:28:22;6.60;86.20
79439;DHT22;68889;48.232;10.110;2024-02-23T11:30:59;6.50;85.60
79439;DHT22;68889;48.232;10.110;2024-02-23T11:34:02;6.40;86.70
79439;DHT22;68889;48.232;10.110;2024-02-23T11:36:32;6.40;87.20
79439;DHT22;68889;48.232;10.110;2024-02-23T11:39:11;6.40;86.70
79439;DHT22;68889;48.232;10.110;2024-02-23T11:41:54;6.40;88.20
79439;DHT22;68889;48.232;10.110;2024-02-23T11:44:26;6.50;87.30
79439;DHT22;68889;48.232;10.110;2024-02-23T11:47:00;6.60;87.60
79439;DHT22;68889;48.232;10.110;2024-02-23T11:49:29;6.80;88.30
79439;DHT22;68889;48.232;10.110;2024-02-23T11:52:04;6.90;87.00
79439;DHT22;68889;48.232;10.110;2024-02-23T11:54:30;6.90;87.80
79439;DHT22;68889;48.232;10.110;2024-02-23T11:57:20;7.00;87.60
79439;DHT22;68889;48.232;10.110;2024-02-23T11:59:46;6.90;87.30
79439;DHT22;68889;48.232;10.110;2024-02-23T12:02:24;6.90;87.70
79439;DHT22;68889;48.232;10.110;2024-02-23T12:04:49;6.90;87.60
79439;DHT22;68889;48.232;10.110;2024-02-23T12:07:15;6.90;88.80
79439;DHT22;68889;48.232;10.110;2024-02-23T12:09:42;6.90;88.40
79439;DHT22;68889;48.232;10.110;2024-02-23T12:12:09;6.90;88.20
79439;DHT22;68889;48.232;10.110;2024-02-23T12:14:39;7.00;88.30
79439;DHT22;68889;48.232;10.110;2024-02-23T12:17:06;7.00;89.10
79439;DHT22;68889;48.232;10.110;2024-02-23T12:19:38;7.10;89.00
79439;DHT22;68889;48.232;10.110;2024-02-23T12:22:26;7.20;88.90
79439;DHT22;68889;48.232;10.110;2024-02-23T12:24:59;7.30;88.90
79439;DHT22;68889;48.232;10.110;2024-02-23T12:27:26;7.40;87.50
79439;DHT22;68889;48.232;10.110;2024-02-23T12:29:54;7.40;88.20
79439;DHT22;68889;48.232;10.110;2024-02-23T12:32:21;7.40;88.30
79439;DHT22;68889;48.232;10.110;2024-02-23T12:34:47;7.60;87.90
79439;DHT22;68889;48.232;10.110;2024-02-23T12:37:21;7.60;88.60
79439;DHT22;68889;48.232;10.110;2024-02-23T12:39:50;7.80;88.70
79439;DHT22;68889;48.232;10.110;2024-02-23T12:42:24;7.90;88.00
79439;DHT22;68889;48.232;10.110;2024-02-23T12:44:50;8.00;86.90
79439;DHT22;68889;48.232;10.110;2024-02-23T12:47:26;7.90;86.70
79439;DHT22;68889;48.232;10.110;2024-02-23T12:49:51;7.80;87.50
79439;DHT22;68889;48.232;10.110;2024-02-23T12:52:25;7.80;87.40
79439;DHT22;68889;48.232;10.110;2024-02-23T12:55:00;7.80;86.90
79439;DHT22;68889;48.232;10.110;2024-02-23T12:57:53;7.80;87.10
79439;DHT22;68889;48.232;10.110;2024-02-23T13:00:43;7.80;87.90
79439;DHT22;68889;48.232;10.110;2024-02-23T13:03:09;7.80;86.90
79439;DHT22;68889;48.232;10.110;2024-02-23T13:05:46;7.90;87.70
79439;DHT22;68889;48.232;10.110;2024-02-23T13:08:12;7.90;87.30
79439;DHT22;68889;48.232;10.110;2024-02-23T13:10:43;7.80;85.50
79439;DHT22;68889;48.232;10.110;2024-02-23T13:13:19;7.70;86.50
79439;DHT22;68889;48.232;10.110;2024-02-23T13:15:47;7.70;85.70
79439;DHT22;68889;48.232;10.110;2024-02-23T13:18:27;7.70;84.90
79439;DHT22;68889;48.232;10.110;2024-02-23T13:20:59;7.50;86.10
79439;DHT22;68889;48.232;10.110;2024-02-23T13:23:25;7.40;86.40
79439;DHT22;68889;48.232;10.110;2024-02-23T13:26:15;7.40;86.60
79439;DHT22;68889;48.232;10.110;2024-02-23T13:29:11;7.40;86.80
79439;DHT22;68889;48.232;10.110;2024-02-23T13:31:36;7.50;86.90
79439;DHT22;68889;48.232;10.110;2024-02-23T13:34:33;7.50;86.60
79439;DHT22;68889;48.232;10.110;2024-02-23T13:37:10;7.70;86.40
79439;DHT22;68889;48.232;10.110;2024-02-23T13:40:05;7.80;85.60
79439;DHT22;68889;48.232;10.110;2024-02-23T13:42:39;7.90;84.70
79439;DHT22;68889;48.232;10.110;2024-02-23T13:45:12;7.90;84.50
79439;DHT22;68889;48.232;10.110;2024-02-23T13:47:41;7.90;85.20
79439;DHT22;68889;48.232;10.110;2024-02-23T13:50:41;7.90;83.90
79439;DHT22;68889;48.232;10.110;2024-02-23T13:53:24;7.80;83.70
79439;DHT22;68889;48.232;10.110;2024-02-23T13:56:01;7.80;84.30
79439;DHT22;68889;48.232;10.110;2024-02-23T13:58:27;7.70;84.90
79439;DHT22;68889;48.232;10.110;2024-02-23T14:01:00;7.70;83.70
79439;DHT22;68889;48.232;10.110;2024-02-23T14:03:27;7.70;83.80
79439;DHT22;68889;48.232;10.110;2024-02-23T14:06:07;7.70;84.70
79439;DHT22;68889;48.232;10.110;2024-02-23T14:08:40;7.70;82.60
79439;DHT22;68889;48.232;10.110;2024-02-23T14:11:25;7.60;82.50
79439;DHT22;68889;48.232;10.110;2024-02-23T14:13:52;7.60;82.00
79439;DHT22;68889;48.232;10.110;2024-02-23T14:16:19;7.60;80.90
79439;DHT22;68889;48.232;10.110;2024-02-23T14:19:17;7.50;80.50
79439;DHT22;68889;48.232;10.110;2024-02-23T14:21:55;7.40;79.90
79439;DHT22;68889;48.232;10.110;2024-02-23T14:24:22;7.50;79.40
79439;DHT22;68889;48.232;10.110;2024-02-23T14:27:13;7.50;79.00
79439;DHT22;68889;48.232;10.110;2024-02-23T14:29:40;7.60;78.90
79439;DHT22;68889;48.232;10.110;2024-02-23T14:32:22;7.60;79.10
79439;DHT22;68889;48.232;10.110;2024-02-23T14:35:02;7.60;78.30
79439;DHT22;68889;48.232;10.110;2024-02-23T14:37:50;7.60;77.80
79439;DHT22;68889;48.232;10.110;2024-02-23T14:40:19;7.70;77.80
79439;DHT22;68889;48.232;10.110;2024-02-23T14:43:03;7.70;78.90
79439;DHT22;68889;48.232;10.110;2024-02-23T14:45:29;7.80;78.80
79439;DHT22;68889;48.232;10.110;2024-02-23T14:47:55;7.80;77.60
79439;DHT22;68889;48.232;10.110;2024-02-23T14:53:32;7.50;79.40
79439;DHT22;68889;48.232;10.110;2024-02-23T14:56:06;7.50;79.80
79439;DHT22;68889;48.232;10.110;2024-02-23T14:58:55;7.50;80.40
79439;DHT22;68889;48.232;10.110;2024-02-23T15:01:21;7.60;80.20
79439;DHT22;68889;48.232;10.110;2024-02-23T15:03:58;7.50;81.20
79439;DHT22;68889;48.232;10.110;2024-02-23T15:06:36;7.50;80.50
79439;DHT22;68889;48.232;10.110;2024-02-23T15:09:05;7.50;81.60
79439;DHT22;68889;48.232;10.110;2024-02-23T15:11:31;7.40;81.60
79439;DHT22;68889;48.232;10.110;2024-02-23T15:14:02;7.40;81.60
79439;DHT22;68889;48.232;10.110;2024-02-23T15:16:46;7.40;81.90
79439;DHT22;68889;48.232;10.110;2024-02-23T15:19:35;7.40;81.70
79439;DHT22;68889;48.232;10.110;2024-02-23T15:22:23;7.30;82.10
79439;DHT22;68889;48.232;10.110;2024-02-23T15:28:31;7.20;82.10
79439;DHT22;68889;48.232;10.110;2024-02-23T15:31:05;7.10;82.60
79439;DHT22;68889;48.232;10.110;2024-02-23T15:33:59;7.10;82.10
79439;DHT22;68889;48.232;10.110;2024-02-23T15:36:25;7.00;82.20
79439;DHT22;68889;48.232;10.110;2024-02-23T15:38:54;7.00;82.20
79439;DHT22;68889;48.232;10.110;2024-02-23T15:41:26;6.90;82.00
79439;DHT22;68889;48.232;10.110;2024-02-23T15:44:01;7.00;82.70
79439;DHT22;68889;48.232;10.110;2024-02-23T15:47:00;7.00;82.70
79439;DHT22;68889;48.232;10.110;2024-02-23T15:49:38;6.90;83.50
79439;DHT22;68889;48.232;10.110;2024-02-23T15:52:20;6.90;83.70
79439;DHT22;68889;48.232;10.110;2024-02-23T15:58:01;7.00;84.60
79439;DHT22;68889;48.232;10.110;2024-02-23T16:00:37;6.90;83.50
79439;DHT22;68889;48.232;10.110;2024-02-23T16:03:27;6.80;83.30
79439;DHT22;68889;48.232;10.110;2024-02-23T16:06:13;6.80;83.20
79439;DHT22;68889;48.232;10.110;2024-02-23T16:08:52;6.70;83.80
79439;DHT22;68889;48.232;10.110;2024-02-23T16:11:20;6.70;86.50
79439;DHT22;68889;48.232;10.110;2024-02-23T16:16:49;6.60;87.30
79439;DHT22;68889;48.232;10.110;2024-02-23T16:19:16;6.50;85.70
79439;DHT22;68889;48.232;10.110;2024-02-23T16:26:49;6.30;89.30
79439;DHT22;68889;48.232;10.110;2024-02-23T16:29:14;6.30;89.10
79439;DHT22;68889;48.232;10.110;2024-02-23T16:31:43;6.30;88.10
79439;DHT22;68889;48.232;10.110;2024-02-23T16:34:09;6.30;88.50
79439;DHT22;68889;48.232;10.110;2024-02-23T16:36:34;6.30;88.60
79439;DHT22;68889;48.232;10.110;2024-02-23T16:39:00;6.30;88.80
79439;DHT22;68889;48.232;10.110;2024-02-23T16:41:27;6.20;88.60
79439;DHT22;68889;48.232;10.110;2024-02-23T16:43:53;6.20;87.70
79439;DHT22;68889;48.232;10.110;2024-02-23T16:46:20;6.00;89.50
79439;DHT22;68889;48.232;10.110;2024-02-23T16:48:45;5.90;88.50
79439;DHT22;68889;48.232;10.110;2024-02-23T16:51:11;5.80;89.20
79439;DHT22;68889;48.232;10.110;2024-02-23T16:53:37;5.70;87.90
79439;DHT22;68889;48.232;10.110;2024-02-23T16:56:04;5.70;90.20
79439;DHT22;68889;48.232;10.110;2024-02-23T16:58:29;5.60;90.90
79439;DHT22;68889;48.232;10.110;2024-02-23T17:01:04;5.50;90.90
79439;DHT22;68889;48.232;10.110;2024-02-23T17:03:30;5.40;90.90
79439;DHT22;68889;48.232;10.110;2024-02-23T17:05:55;5.40;90.60
79439;DHT22;68889;48.232;10.110;2024-02-23T17:08:21;5.30;91.60
79439;DHT22;68889;48.232;10.110;2024-02-23T17:10:48;5.10;92.00
79439;DHT22;68889;48.232;10.110;2024-02-23T17:13:13;5.10;92.40
79439;DHT22;68889;48.232;10.110;2024-02-23T17:15:40;5.00;92.90
79439;DHT22;68889;48.232;10.110;2024-02-23T17:18:07;4.90;93.40
79439;DHT22;68889;48.232;10.110;2024-02-23T17:20:32;4.80;93.50
79439;DHT22;68889;48.232;10.110;2024-02-23T17:22:58;4.80;93.70
79439;DHT22;68889;48.232;10.110;2024-02-23T17:25:23;4.70;93.80
79439;DHT22;68889;48.232;10.110;2024-02-23T17:27:49;4.70;93.50